Meteo Giornale » Osservazioni meteo Italia » Napoli-Capodichino

ore: 05:50 - Osservazioni Meteo Napoli-Capodichino
Lat. 40° 51' N Lon. 14° 18' E Alt. 88 metri s.l.m.

sereno Europe/Rome

20 °C

Sereno

Temp. 24 Ore

19 °C

31 °C

Nord

3.7 Km/h

Dew point 14 °C

Umidità 68 %

Visibilità  10 Km

Il sole sorge alle ore 06:43

Il sole tramonta alle ore 19:12

Data e Ora Cielo e Fenomeni T °C DP °C Um. % Pres. hPa Vis. km Vento km/h
Oggi h: 05:50 sereno Sereno 20 14 68 1019 10 N 3.7
Oggi h: 05:20 sereno Sereno 19 14 72 1020 10 N 1.8
Oggi h: 04:50 sereno Sereno 20 14 68 1020 10 N 0
Oggi h: 04:20 sereno Sereno 21 14 64 1020 10 N 3.7
Oggi h: 03:50 sereno Sereno 21 14 64 1020 10 N 5.5
Oggi h: 03:20 sereno Sereno 20 14 68 1020 10 N 3.7
Oggi h: 02:50 sereno Sereno 21 14 64 1020 10 N 5.5
Oggi h: 02:20 sereno Sereno 21 14 64 1021 10 N 5.5
Oggi h: 01:50 sereno Sereno 21 15 68 1021 10 N 5.5
Oggi h: 01:20 sereno Sereno 22 15 64 1021 10 N 3.7
Oggi h: 00:50 sereno Sereno 22 15 64 1021 10 N 3.7
Oggi h: 00:20 sereno Sereno 22 15 64 1021 10 N 3.7
Ieri h: 23:50 sereno Sereno 22 15 64 1021 10 N 1.8
Ieri h: 23:20 sereno Sereno 23 15 60 1021 10 N 3.7
Ieri h: 22:50 sereno Sereno 24 15 57 1021 10 N 1.8
Ieri h: 22:20 sereno Sereno 24 15 57 1021 10 N 3.7
Ieri h: 21:50 sereno Sereno 25 15 53 1021 10 N 5.5
Ieri h: 21:20 sereno Sereno 25 15 53 1021 10 N 5.5
Ieri h: 20:50 sereno Sereno 25 16 57 1021 10 N 9.3
Ieri h: 20:20 sereno Sereno 25 15 53 1021 10 NO 9.3
Ieri h: 19:50 sereno Sereno 26 15 50 1021 10 NO 9.3
Ieri h: 19:20 sereno Sereno 26 13 44 1021 10 NO 9.3
Ieri h: 18:50 sereno Sereno 27 14 44 1021 10 NO 7.4
Ieri h: 18:20 sereno Sereno 28 11 34 1021 10 O 11.1
Ieri h: 17:50 sereno Sereno 29 11 32 1021 10 O/SO 9.3
Ieri h: 17:20 sereno Sereno 29 11 32 1021 10 S/SO 11.1
Ieri h: 16:50 sereno Sereno 30 11 30 1021 10 S/SO 11.1
Ieri h: 16:20 sereno Sereno 29 12 35 1021 10 S/SO 14.8
Ieri h: 15:50 sereno Sereno 29 12 35 1021 10 SO 16.7
Ieri h: 15:20 sereno Sereno 30 12 33 1022 10 S/SO 13
Ieri h: 14:50 sereno Sereno 30 11 30 1022 10 S/SO 13
Ieri h: 14:20 sereno Sereno 30 10 28 1022 10 S/SO 13
Ieri h: 13:50 sereno Sereno 31 12 31 1022 10 N 9.3
Ieri h: 13:20 sereno Sereno 31 12 31 1023 10 N 7.4
Ieri h: 12:50 sereno Sereno 30 10 28 1023 10 N 5.5
Ieri h: 12:20 sereno Sereno 30 11 30 1023 10 N 3.7
Ieri h: 11:50 sereno Sereno 29 11 32 1024 10 N 5.5
Ieri h: 11:20 sereno Sereno 29 12 35 1024 10 E 7.4
Ieri h: 10:50 sereno Sereno 28 11 34 1024 10 E 7.4
Ieri h: 10:20 sereno Sereno 27 12 39 1024 10 NE 9.3
Ieri h: 09:50 sereno Sereno 27 12 39 1024 10 NE 7.4
Ieri h: 09:20 sereno Sereno 25 12 44 1024 10 N 9.3
Ieri h: 08:50 sereno Sereno 24 12 47 1024 10 N 9.3
Ieri h: 08:20 sereno Sereno 23 11 46 1024 10 N 7.4
Ieri h: 07:50 sereno Sereno 22 11 49 1024 10 N 5.5
Ieri h: 07:20 sereno Sereno 21 11 52 1024 10 N 7.4
Ieri h: 06:50 sereno Sereno 21 10 49 1023 10 N 9.3